Eglin AFB Auxiliary Field Crestview Okaloosa Florida US
ICAO: KEGI
IATA: EGI
Category: Medium
Scheduled Services: No

Elevation: 191 ft
TransAlt. 18000 ft.

Airport Communications:
APP:37.915
APP:125.1
DEP:120.9
GND:25.112
COMD POST:150.6
PTD:139.3
TWR:133.2

KEGI Zoom In..

If you have problems with the map follow the link
https://www.worldairports.se/pages/airport.php?
ICAO=KEGI

Runways:

(A) RW 18 length 8025 ft width 150 ft
ILS 111.70 / hdg 180

(B) RW 36 length 8025 ft width 150 ft
---- / hdg 360

Location; KEGI
Day. 20 / Time. 20.55 Zulu
* Altimeter: 29.97
* Temperature: 21° c. 69.8°f.
* Wind from: 180° Speed 12 kn.
Dewpoint: 21° c.
Visibility: 4 Statute Miles.
Clouds: Overcast 400 ft.
Conditions: Mist.

KEGI 202055Z 18012KT 4SM BR OVC004 21/21 A2997 RMK AO2A TWR VIS 3/4 SLP149 T02070207 55011 $


Wind From 180°
Speed 12 kn.

 
 
jpsmedia.com for Web Design worldairports.se 2019   terms of use